First Clarity — A8RM8 — position and weather

sailwx.info

Track history (hours):
 
Tides and Currents Weather Stations Pressure Air Temp Water Temp Dewpoint Dewpoint Depression Visibility Wind Speed Wind Dir Waves Ship Positions

First Clarity

Last reported at 2015-Aug-20 11:33 UTC. Time now 2015-Aug-28 07:33 UTC.
Position N 34°59' E 139°29'.

Length 104 m; draft 5.9 m.

Type: Cargo ship. MMSI: 636014129.

Date/timePositionNaut miles runAvg speedWind from/ knotsBaromVisibWave heightAir tempDewpointWater temp
2015-Aug-20 11:33N 34°59' E 139°29'1010.2
2015-Aug-20 10:34N 35°05' E 139°39'1010.1
2015-Aug-20 09:34N 35°14' E 139°46'1010.1
2015-Aug-20 08:34N 35°23' E 139°41'3 2.7
2015-Aug-20 07:33N 35°24' E 139°38'0 0.0
2015-Aug-20 06:33N 35°24' E 139°38'0 0.0
2015-Aug-20 05:33N 35°24' E 139°38'0 0.0
2015-Aug-20 04:33N 35°24' E 139°38'0 0.0
2015-Aug-20 03:33N 35°24' E 139°38'0 0.0
2015-Aug-20 02:30N 35°24' E 139°38'0 0.0
2015-Aug-20 01:33N 35°24' E 139°38'0 0.0
2015-Aug-20 00:32N 35°24' E 139°38'0 0.0
2015-Aug-19 23:32N 35°24' E 139°38'0 0.0
2015-Aug-19 22:29N 35°24' E 139°38'0 0.0
2015-Aug-19 21:30N 35°24' E 139°38'0 0.0
2015-Aug-19 20:32N 35°24' E 139°38'0 0.0
2015-Aug-19 19:33N 35°24' E 139°38'0 0.0
2015-Aug-19 18:33N 35°24' E 139°38'0 0.0
2015-Aug-19 17:32N 35°24' E 139°38'0 0.0
2015-Aug-19 16:33N 35°24' E 139°38'0 0.0
2015-Aug-19 15:33N 35°24' E 139°38'0 0.0
2015-Aug-19 14:33N 35°24' E 139°38'0 0.0
2015-Aug-19 13:33N 35°24' E 139°38'0 0.0
2015-Aug-19 12:33N 35°24' E 139°38'0 0.0
2015-Aug-19 11:33N 35°24' E 139°38'0 0.0
2015-Aug-19 10:33N 35°24' E 139°38'0 0.0
2015-Aug-19 09:33N 35°24' E 139°38'0 0.0
2015-Aug-19 08:33N 35°24' E 139°38'0 0.4
2015-Aug-19 07:33N 35°25' E 139°39'5 4.7
2015-Aug-19 06:33N 35°21' E 139°43'1111.3
2015-Aug-19 05:33N 35°10' E 139°47'1010.0
2015-Aug-19 04:33N 35°02' E 139°41'  
2015-Aug-11 09:19N 34°58' E 139°27'6 7.8
2015-Aug-11 08:33N 35°01' E 139°33'9 9.5
2015-Aug-11 07:33N 35°06' E 139°43'1010.1
2015-Aug-11 06:33N 35°16' E 139°45'10 9.8
2015-Aug-11 05:34N 35°24' E 139°39'0 0.4
2015-Aug-11 04:32N 35°24' E 139°38'0 0.0
2015-Aug-11 03:32N 35°24' E 139°38'0 0.0
2015-Aug-11 02:32N 35°24' E 139°38'0 0.0
2015-Aug-11 01:32N 35°24' E 139°38'0 0.0
2015-Aug-11 00:32N 35°24' E 139°38'0 0.0
2015-Aug-10 23:32N 35°24' E 139°38'0 0.0
2015-Aug-10 22:32N 35°24' E 139°38'0 0.0
2015-Aug-10 21:32N 35°24' E 139°38'0 0.0
2015-Aug-10 20:32N 35°24' E 139°38'0 0.0
2015-Aug-10 19:32N 35°24' E 139°38'0 0.0
2015-Aug-10 18:32N 35°24' E 139°38'0 0.0
2015-Aug-10 17:32N 35°24' E 139°38'0 0.0
2015-Aug-10 16:32N 35°24' E 139°38'0 0.0
2015-Aug-10 15:32N 35°24' E 139°38'0 0.0
2015-Aug-10 14:32N 35°24' E 139°38'0 0.0
2015-Aug-10 13:32N 35°24' E 139°38'0 0.0
2015-Aug-10 12:32N 35°24' E 139°38'  
Track history (hours):
 
Tides and Currents Weather Stations Pressure Air Temp Water Temp Dewpoint Dewpoint Depression Visibility Wind Speed Wind Dir Waves Ship Positions

First Clarity

Last reported at 2015-Aug-20 11:33 UTC. Time now 2015-Aug-28 07:33 UTC.
Position N 34°59' E 139°29'.

Length 104 m; draft 5.9 m.

Type: Cargo ship. MMSI: 636014129.

Date/timePositionNaut miles runAvg speedWind from/ knotsBaromVisibWave heightAir tempDewpointWater temp
2015-Aug-20 11:33N 34°59' E 139°29'1010.2
2015-Aug-20 10:34N 35°05' E 139°39'1010.1
2015-Aug-20 09:34N 35°14' E 139°46'1010.1
2015-Aug-20 08:34N 35°23' E 139°41'3 2.7
2015-Aug-20 07:33N 35°24' E 139°38'0 0.0
2015-Aug-20 06:33N 35°24' E 139°38'0 0.0
2015-Aug-20 05:33N 35°24' E 139°38'0 0.0
2015-Aug-20 04:33N 35°24' E 139°38'0 0.0
2015-Aug-20 03:33N 35°24' E 139°38'0 0.0
2015-Aug-20 02:30N 35°24' E 139°38'0 0.0
2015-Aug-20 01:33N 35°24' E 139°38'0 0.0
2015-Aug-20 00:32N 35°24' E 139°38'0 0.0
2015-Aug-19 23:32N 35°24' E 139°38'0 0.0
2015-Aug-19 22:29N 35°24' E 139°38'0 0.0
2015-Aug-19 21:30N 35°24' E 139°38'0 0.0
2015-Aug-19 20:32N 35°24' E 139°38'0 0.0
2015-Aug-19 19:33N 35°24' E 139°38'0 0.0
2015-Aug-19 18:33N 35°24' E 139°38'0 0.0
2015-Aug-19 17:32N 35°24' E 139°38'0 0.0
2015-Aug-19 16:33N 35°24' E 139°38'0 0.0
2015-Aug-19 15:33N 35°24' E 139°38'0 0.0
2015-Aug-19 14:33N 35°24' E 139°38'0 0.0
2015-Aug-19 13:33N 35°24' E 139°38'0 0.0
2015-Aug-19 12:33N 35°24' E 139°38'0 0.0
2015-Aug-19 11:33N 35°24' E 139°38'0 0.0
2015-Aug-19 10:33N 35°24' E 139°38'0 0.0
2015-Aug-19 09:33N 35°24' E 139°38'0 0.0
2015-Aug-19 08:33N 35°24' E 139°38'0 0.4
2015-Aug-19 07:33N 35°25' E 139°39'5 4.7
2015-Aug-19 06:33N 35°21' E 139°43'1111.3
2015-Aug-19 05:33N 35°10' E 139°47'1010.0
2015-Aug-19 04:33N 35°02' E 139°41'  
2015-Aug-11 09:19N 34°58' E 139°27'6 7.8
2015-Aug-11 08:33N 35°01' E 139°33'9 9.5
2015-Aug-11 07:33N 35°06' E 139°43'1010.1
2015-Aug-11 06:33N 35°16' E 139°45'10 9.8
2015-Aug-11 05:34N 35°24' E 139°39'0 0.4
2015-Aug-11 04:32N 35°24' E 139°38'0 0.0
2015-Aug-11 03:32N 35°24' E 139°38'0 0.0
2015-Aug-11 02:32N 35°24' E 139°38'0 0.0
2015-Aug-11 01:32N 35°24' E 139°38'0 0.0
2015-Aug-11 00:32N 35°24' E 139°38'0 0.0
2015-Aug-10 23:32N 35°24' E 139°38'0 0.0
2015-Aug-10 22:32N 35°24' E 139°38'0 0.0
2015-Aug-10 21:32N 35°24' E 139°38'0 0.0
2015-Aug-10 20:32N 35°24' E 139°38'0 0.0
2015-Aug-10 19:32N 35°24' E 139°38'0 0.0
2015-Aug-10 18:32N 35°24' E 139°38'0 0.0
2015-Aug-10 17:32N 35°24' E 139°38'0 0.0
2015-Aug-10 16:32N 35°24' E 139°38'0 0.0
2015-Aug-10 15:32N 35°24' E 139°38'0 0.0
2015-Aug-10 14:32N 35°24' E 139°38'0 0.0
2015-Aug-10 13:32N 35°24' E 139°38'0 0.0
2015-Aug-10 12:32N 35°24' E 139°38'  

Dump ship's entire track history